Time;durP1;ratioP1;P1;durP2;ratioP2;P2;SDS_P1;SDS_P2;PMS_P1;PMS_P2;Temp;Humidity;BMP_temperature;BMP_pressure;BME280_temperature;BME280_humidity;BME280_pressure;Samples;Min_cycle;Max_cycle;Signal;HPM_P1;HPM_P2
2021/12/20 00:00:49;;;;;;;4.57;2.95;;;;;;;20.78;37.16;102737.09;7312311;19;130704;-63
2021/12/20 00:03:16;;;;;;;5.85;2.92;;;;;;;20.78;37.07;102725.97;7312556;19;129057;-64
2021/12/20 00:05:42;;;;;;;11.57;2.80;;;;;;;20.75;37.02;102734.72;7312526;19;130170;-64
2021/12/20 00:08:09;;;;;;;6.75;3.05;;;;;;;20.71;36.91;102733.44;7311199;19;131372;-64
2021/12/20 00:10:36;;;;;;;5.85;2.90;;;;;;;20.70;36.85;102720.59;7314191;19;130664;-64
2021/12/20 00:13:03;;;;;;;7.55;2.97;;;;;;;20.70;36.94;102720.59;7311508;19;129065;-64
2021/12/20 00:15:30;;;;;;;6.57;2.60;;;;;;;20.69;36.74;102724.44;7315328;19;128866;-64
2021/12/20 00:17:57;;;;;;;7.75;2.88;;;;;;;20.68;36.52;102719.94;7311630;19;131079;-64
2021/12/20 00:20:23;;;;;;;4.50;2.55;;;;;;;20.66;36.93;102708.22;7313743;19;130389;-64
2021/12/20 00:22:50;;;;;;;4.85;2.60;;;;;;;20.66;36.86;102713.78;7310848;19;129262;-64
2021/12/20 00:25:18;;;;;;;7.55;2.95;;;;;;;20.65;36.87;102714.84;7312519;19;129331;-64
2021/12/20 00:27:44;;;;;;;4.90;2.53;;;;;;;20.63;36.64;102719.78;7312456;19;130494;-64
2021/12/20 00:30:12;;;;;;;7.68;3.00;;;;;;;20.62;36.57;102709.72;7312751;19;131077;-65
2021/12/20 00:32:39;;;;;;;7.43;2.40;;;;;;;20.60;36.47;102710.78;7314080;19;128910;-64
2021/12/20 00:35:06;;;;;;;6.38;2.83;;;;;;;20.59;36.77;102713.78;7311235;19;128952;-64
2021/12/20 00:40:23;;;;;;;5.43;2.63;;;;;;;20.54;36.72;102700.53;7313574;19;130549;-63
2021/12/20 00:42:53;;;;;;;5.53;2.83;;;;;;;20.52;36.78;102699.91;7312653;19;129664;-64
2021/12/20 00:45:21;;;;;;;4.25;2.47;;;;;;;20.50;36.55;102698.38;7314802;19;129962;-64
2021/12/20 00:47:48;;;;;;;8.20;2.97;;;;;;;20.49;36.57;102691.13;7311345;19;130691;-64
2021/12/20 00:50:18;;;;;;;6.47;2.40;;;;;;;20.47;36.76;102691.34;7315639;19;130621;-64
2021/12/20 00:52:46;;;;;;;4.78;2.25;;;;;;;20.46;37.00;102700.75;7310185;19;128826;-64
2021/12/20 00:55:16;;;;;;;6.00;2.80;;;;;;;20.45;36.72;102690.69;7313382;19;128921;-63
2021/12/20 00:57:44;;;;;;;4.50;2.63;;;;;;;20.44;36.69;102692.63;7310902;19;130639;-64
2021/12/20 01:00:14;;;;;;;6.93;2.38;;;;;;;20.41;36.70;102695.00;7311440;19;131211;-64
2021/12/20 01:02:41;;;;;;;5.72;2.40;;;;;;;20.41;36.73;102708.91;7311151;19;129516;-63
2021/12/20 01:05:08;;;;;;;4.90;2.10;;;;;;;20.40;36.74;102704.41;7312322;19;128974;-64
2021/12/20 01:07:35;;;;;;;7.22;3.08;;;;;;;20.38;36.53;102695.41;7313348;19;131516;-64
2021/12/20 01:10:06;;;;;;;3.42;2.20;;;;;;;20.36;36.95;102698.44;7312789;19;130532;-64
2021/12/20 01:12:43;;;;;;;5.63;2.80;;;;;;;20.34;37.09;102700.56;7315232;19;128856;-64
2021/12/20 01:15:15;;;;;;;6.55;2.45;;;;;;;20.35;37.06;102698.63;7312849;19;129986;-64
2021/12/20 01:17:42;;;;;;;6.03;2.65;;;;;;;20.32;36.86;102697.13;7313419;19;130763;-64
2021/12/20 01:20:09;;;;;;;5.03;2.60;;;;;;;20.33;37.23;102692.41;7311900;19;130514;-63
2021/12/20 01:22:36;;;;;;;6.18;2.58;;;;;;;20.31;37.03;102692.63;7313486;19;129116;-64
2021/12/20 01:25:03;;;;;;;6.00;2.72;;;;;;;20.29;36.85;102689.22;7314915;19;129007;-64
2021/12/20 01:27:30;;;;;;;4.25;2.15;;;;;;;20.28;36.59;102679.16;7311562;19;130605;-64
2021/12/20 01:29:57;;;;;;;4.18;2.22;;;;;;;20.26;37.02;102687.72;7314589;19;130577;-64
2021/12/20 01:32:23;;;;;;;5.13;2.75;;;;;;;20.24;37.00;102689.88;7310800;19;128895;-65
2021/12/20 01:34:50;;;;;;;4.68;2.30;;;;;;;20.23;37.02;102698.44;7313462;19;131310;-64
2021/12/20 01:37:17;;;;;;;4.30;2.45;;;;;;;20.21;36.66;102695.84;7311918;19;130637;-63
2021/12/20 01:39:43;;;;;;;7.70;2.70;;;;;;;20.19;37.05;102689.63;7311802;19;130517;-63
2021/12/20 01:42:20;;;;;;;5.25;2.40;;;;;;;20.18;36.83;102687.97;7313109;19;129857;-64
2021/12/20 01:44:49;;;;;;;6.43;2.63;;;;;;;20.17;37.12;102693.72;7310385;19;129756;-64
2021/12/20 01:47:18;;;;;;;6.45;2.47;;;;;;;20.15;36.89;102693.94;7312680;19;130291;-63
2021/12/20 01:51:01;;;;;;;4.47;2.30;;;;;;;20.13;37.04;102694.13;7308464;19;130405;-64
2021/12/20 01:52:43;;;;;;;4.32;2.17;;;;;;;20.11;36.81;102685.19;7311202;19;129365;-64
2021/12/20 01:55:18;;;;;;;4.60;2.80;;;;;;;20.10;36.92;102688.16;7309573;19;129521;-63
2021/12/20 01:57:48;;;;;;;6.03;2.30;;;;;;;20.10;36.60;102690.94;7310458;19;130792;-64
2021/12/20 02:00:19;;;;;;;4.60;2.42;;;;;;;20.08;36.68;102685.59;7312493;19;131338;-64
2021/12/20 02:02:46;;;;;;;6.57;2.50;;;;;;;20.07;36.81;102688.56;7309363;19;129176;-64
2021/12/20 02:05:24;;;;;;;3.92;2.13;;;;;;;20.05;36.89;102690.72;7312462;19;129587;-64
2021/12/20 02:08:01;;;;;;;4.13;1.95;;;;;;;20.03;36.80;102696.47;7310258;19;130784;-64
2021/12/20 02:10:27;;;;;;;;;;;;;;;19.98;36.65;102691.53;7311784;19;130530;-64
2021/12/20 02:12:55;;;;;;;5.15;2.78;;;;;;;20.02;36.56;102689.22;7308931;19;129114;-64
2021/12/20 02:15:22;;;;;;;4.55;2.30;;;;;;;19.99;37.04;102689.63;7311150;19;129695;-64
2021/12/20 02:17:49;;;;;;;4.43;2.20;;;;;;;19.99;37.06;102692.41;7311640;19;131494;-64
2021/12/20 02:20:26;;;;;;;4.55;2.40;;;;;;;19.98;36.81;102688.75;7308846;19;130493;-64
2021/12/20 02:22:56;;;;;;;5.38;2.28;;;;;;;19.95;37.03;102686.41;7312787;19;128846;-63
2021/12/20 02:25:24;;;;;;;4.22;2.10;;;;;;;19.95;36.85;102689.19;7310191;19;130690;-64
2021/12/20 02:27:50;;;;;;;3.50;2.35;;;;;;;19.93;37.11;102694.13;7311066;19;130691;-63
2021/12/20 02:38:35;;;;;;;;;;;;;;;19.87;37.00;102680.22;7313282;19;130647;-63
2021/12/20 02:41:08;;;;;;;;;;;;;;;19.87;36.61;102683.84;7310698;19;130439;-64
2021/12/20 02:43:40;;;;;;;4.93;2.42;;;;;;;19.88;36.65;102668.03;7312936;19;129150;-63
2021/12/20 02:47:28;;;;;;;5.97;2.75;;;;;;;19.87;36.56;102680.22;7308986;19;129196;-63
2021/12/20 02:49:41;;;;;;;4.75;1.98;;;;;;;19.82;36.64;102670.59;7307586;19;131461;-63
2021/12/20 02:52:08;;;;;;;4.00;1.98;;;;;;;19.82;36.75;102672.50;7311836;19;130634;-63
2021/12/20 02:54:35;;;;;;;4.43;2.10;;;;;;;19.82;36.63;102669.72;7309802;19;131200;-64
2021/12/20 02:57:03;;;;;;;4.30;1.75;;;;;;;19.81;36.48;102676.38;7315092;19;129483;-64
2021/12/20 02:59:30;;;;;;;5.93;2.35;;;;;;;19.80;36.51;102671.88;7316367;19;130501;-63
2021/12/20 03:02:03;;;;;;;5.30;2.30;;;;;;;19.79;37.03;102672.94;7318621;19;130624;-63
2021/12/20 03:04:29;;;;;;;4.60;1.90;;;;;;;19.77;36.63;102666.75;7316033;19;129235;-63
2021/12/20 03:07:00;;;;;;;5.28;1.85;;;;;;;19.78;36.77;102662.91;7316622;19;129744;-64
2021/12/20 03:09:32;;;;;;;5.78;2.00;;;;;;;19.78;36.70;102674.00;7318634;19;131466;-62
2021/12/20 03:12:01;;;;;;;3.33;1.85;;;;;;;19.78;36.45;102674.00;7316309;19;130499;-64
2021/12/20 03:14:36;;;;;;;3.50;1.98;;;;;;;19.77;36.55;102675.91;7319348;19;128958;-64
2021/12/20 03:17:04;;;;;;;5.30;1.80;;;;;;;19.78;36.60;102674.00;7313878;19;128938;-64
2021/12/20 03:19:31;;;;;;;3.40;1.95;;;;;;;19.77;36.42;102666.75;7317347;19;132457;-64
2021/12/20 03:21:59;;;;;;;4.75;1.90;;;;;;;19.78;36.39;102674.00;7315921;19;130696;-64
2021/12/20 03:24:29;;;;;;;6.05;2.10;;;;;;;19.76;36.41;102665.88;7314661;19;128963;-64
2021/12/20 03:26:56;;;;;;;4.35;1.80;;;;;;;19.75;36.65;102669.75;7316814;19;130475;-63
2021/12/20 03:29:23;;;;;;;4.18;2.08;;;;;;;19.76;36.46;102667.81;7315781;19;135099;-63
2021/12/20 03:31:49;;;;;;;4.57;2.00;;;;;;;19.76;36.51;102673.34;7318112;19;130597;-64
2021/12/20 03:34:17;;;;;;;4.32;1.70;;;;;;;19.74;36.72;102672.72;7314726;19;128784;-64
2021/12/20 03:36:44;;;;;;;4.07;1.85;;;;;;;19.72;36.65;102672.06;7318456;19;129188;-63
2021/12/20 03:39:11;;;;;;;4.68;1.77;;;;;;;19.72;36.67;102674.84;7313280;19;130491;-64
2021/12/20 03:41:39;;;;;;;3.13;1.63;;;;;;;19.68;36.28;102666.94;7318455;19;130665;-63
2021/12/20 03:44:07;;;;;;;4.65;1.80;;;;;;;19.69;36.75;102663.06;7314453;19;130531;-64
2021/12/20 03:46:35;;;;;;;5.25;1.70;;;;;;;19.68;36.54;102664.19;7315011;19;128883;-63
2021/12/20 03:49:04;;;;;;;3.22;1.90;;;;;;;19.68;36.25;102668.84;7318510;19;132751;-63
2021/12/20 03:51:31;;;;;;;3.08;1.60;;;;;;;19.68;36.25;102658.63;7314183;19;131693;-64
2021/12/20 03:53:57;;;;;;;4.78;1.60;;;;;;;19.68;36.66;102664.19;7317914;19;128711;-63
2021/12/20 03:56:24;;;;;;;3.45;1.45;;;;;;;19.69;36.74;102660.31;7314698;19;129040;-64
2021/12/20 03:58:51;;;;;;;5.30;1.77;;;;;;;19.67;36.48;102656.91;7317724;19;130555;-63
2021/12/20 04:01:18;;;;;;;2.60;1.58;;;;;;;19.67;36.50;102656.03;7312973;19;131121;-64
2021/12/20 04:03:45;;;;;;;3.95;1.90;;;;;;;19.67;36.43;102664.38;7316807;19;131341;-64
2021/12/20 04:06:13;;;;;;;3.80;1.80;;;;;;;19.65;36.55;102659.03;7314958;19;129886;-63
2021/12/20 04:08:42;;;;;;;3.30;1.55;;;;;;;19.66;36.80;102659.88;7314344;19;131293;-64
2021/12/20 04:11:09;;;;;;;5.22;1.98;;;;;;;19.64;36.38;102673.97;7316954;19;131052;-63
2021/12/20 04:13:36;;;;;;;4.30;1.70;;;;;;;19.63;36.27;102668.66;7315423;19;129132;-64
2021/12/20 04:16:03;;;;;;;5.35;1.88;;;;;;;19.63;36.31;102661.16;7316639;19;129096;-63
2021/12/20 04:18:31;;;;;;;3.55;1.90;;;;;;;19.61;36.76;102656.91;7312780;19;131420;-64
2021/12/20 04:21:02;;;;;;;3.33;1.42;;;;;;;19.62;36.28;102675.28;7316540;19;131303;-64
2021/12/20 04:23:28;;;;;;;3.58;1.80;;;;;;;19.61;36.67;102662.44;7313072;19;129029;-63
2021/12/20 04:25:55;;;;;;;5.07;2.08;;;;;;;19.58;36.37;102669.25;7316843;19;129715;-64
2021/12/20 04:28:23;;;;;;;4.65;1.83;;;;;;;19.58;36.55;102666.47;7312656;19;130625;-63
2021/12/20 04:30:50;;;;;;;4.88;1.70;;;;;;;19.57;36.41;102667.53;7313843;19;130567;-64
2021/12/20 04:33:17;;;;;;;2.70;1.58;;;;;;;19.57;36.53;102666.69;7315817;19;129535;-63
2021/12/20 04:35:44;;;;;;;3.95;1.75;;;;;;;19.56;36.64;102665.00;7314234;19;128850;-63
2021/12/20 04:38:11;;;;;;;4.32;1.88;;;;;;;19.53;36.73;102661.56;7315770;19;130570;-64
2021/12/20 04:40:37;;;;;;;3.33;1.52;;;;;;;19.53;36.49;102661.56;7313077;19;130602;-64
2021/12/20 04:43:05;;;;;;;3.63;1.70;;;;;;;19.53;36.65;102667.13;7313741;19;129026;-63
2021/12/20 04:45:32;;;;;;;6.15;2.00;;;;;;;19.53;36.58;102652.41;7312428;19;129346;-63
2021/12/20 04:48:00;;;;;;;4.75;1.70;;;;;;;19.52;36.56;102659.00;7312385;19;130596;-63
2021/12/20 04:50:28;;;;;;;5.55;1.75;;;;;;;19.52;36.69;102653.47;7314395;19;130665;-63
2021/12/20 04:52:55;;;;;;;2.80;1.48;;;;;;;19.50;36.45;102662.00;7314221;19;129421;-64
2021/12/20 04:55:24;;;;;;;5.25;1.35;;;;;;;19.51;36.39;102662.84;7313219;19;129398;-63
2021/12/20 04:57:52;;;;;;;3.13;1.60;;;;;;;19.50;36.33;102658.34;7313180;19;130472;-64
2021/12/20 05:00:22;;;;;;;5.07;1.50;;;;;;;19.52;36.34;102659.00;7315338;19;130504;-63
2021/12/20 05:02:49;;;;;;;5.47;2.03;;;;;;;19.51;36.17;102652.59;7313031;19;128860;-64
2021/12/20 05:05:17;;;;;;;5.40;1.63;;;;;;;19.51;36.51;102657.28;7314761;19;128743;-63
2021/12/20 05:07:45;;;;;;;3.92;1.80;;;;;;;19.51;36.31;102660.06;7311062;19;131145;-63
2021/12/20 05:10:24;;;;;;;3.72;1.63;;;;;;;19.50;36.58;102666.69;7315008;19;130519;-64
2021/12/20 05:12:52;;;;;;;3.90;1.90;;;;;;;19.50;36.23;102667.56;7314606;19;128875;-63
2021/12/20 05:15:19;;;;;;;6.32;1.70;;;;;;;19.51;36.36;102668.41;7313382;19;128798;-64
2021/12/20 05:17:46;;;;;;;5.57;1.63;;;;;;;19.50;36.12;102661.13;7315151;19;131296;-63
2021/12/20 05:20:13;;;;;;;4.28;1.70;;;;;;;19.51;36.30;102665.63;7310791;19;131022;-63
2021/12/20 05:22:40;;;;;;;2.95;1.42;;;;;;;19.51;36.29;102682.28;7313430;19;128980;-64
2021/12/20 05:25:07;;;;;;;5.88;1.77;;;;;;;19.49;35.95;102668.63;7312126;19;129224;-64
2021/12/20 05:27:34;;;;;;;5.38;1.70;;;;;;;19.51;36.16;102676.72;7313411;19;131443;-63
2021/12/20 05:30:00;;;;;;;5.55;1.50;;;;;;;19.49;36.28;102670.53;7310792;19;130496;-63
2021/12/20 05:32:27;;;;;;;3.50;1.40;;;;;;;19.48;36.27;102669.69;7312424;19;129165;-63
2021/12/20 05:34:54;;;;;;;4.47;1.75;;;;;;;19.48;35.78;102671.59;7311320;19;129124;-63
2021/12/20 05:37:21;;;;;;;6.20;1.60;;;;;;;19.50;35.71;102677.78;7312276;19;130844;-64
2021/12/20 05:39:48;;;;;;;4.22;1.50;;;;;;;19.48;35.98;102678.00;7314093;19;129766;-62
2021/12/20 05:42:14;;;;;;;6.35;1.90;;;;;;;19.47;35.65;102678.19;7310001;19;128982;-63
2021/12/20 05:44:41;;;;;;;6.50;1.70;;;;;;;19.44;35.71;102667.53;7313285;19;128910;-63
2021/12/20 05:47:08;;;;;;;5.20;1.70;;;;;;;19.44;35.88;102673.94;7309646;19;131686;-64
2021/12/20 05:49:35;;;;;;;6.05;1.58;;;;;;;19.45;35.77;102680.31;7314294;19;130664;-62
2021/12/20 05:52:05;;;;;;;4.78;1.70;;;;;;;19.44;35.92;102673.09;7311063;19;128906;-63
2021/12/20 05:54:32;;;;;;;6.70;2.03;;;;;;;19.43;35.95;102686.09;7313524;19;128751;-64
2021/12/20 05:56:58;;;;;;;4.13;1.67;;;;;;;19.43;35.71;102683.31;7309890;19;131645;-63
2021/12/20 05:59:25;;;;;;;3.92;1.50;;;;;;;19.43;35.64;102688.03;7312930;19;130731;-63
2021/12/20 06:01:52;;;;;;;5.72;1.60;;;;;;;19.40;35.99;102680.94;7310464;19;128674;-63
2021/12/20 06:04:19;;;;;;;7.35;2.15;;;;;;;19.41;35.71;102690.16;7311537;19;128871;-63
2021/12/20 06:06:46;;;;;;;4.70;1.90;;;;;;;19.41;35.72;102692.94;7312990;19;131292;-63
2021/12/20 06:09:13;;;;;;;5.05;1.55;;;;;;;19.40;35.93;102688.44;7309885;19;130567;-63
2021/12/20 06:11:40;;;;;;;6.38;2.05;;;;;;;19.38;35.83;102695.06;7312988;19;129704;-63
2021/12/20 06:14:07;;;;;;;4.65;1.83;;;;;;;19.38;35.95;102691.44;7309326;19;129603;-64
2021/12/20 06:16:34;;;;;;;3.50;1.48;;;;;;;19.37;35.67;102696.13;7310911;19;130497;-64
2021/12/20 06:19:01;;;;;;;5.82;1.85;;;;;;;19.35;36.02;102692.69;7309338;19;130555;-63
2021/12/20 06:21:28;;;;;;;8.75;2.05;;;;;;;19.35;34.85;102695.47;7309848;19;128911;-62
2021/12/20 06:23:55;;;;;;;12.07;2.67;;;;;;;19.28;32.95;102696.50;7307670;19;129166;-63
2021/12/20 06:26:24;;;;;;;14.93;3.65;;;;;;;19.14;31.76;102701.97;7307729;19;131109;-62
2021/12/20 06:28:52;;;;;;;11.50;2.83;;;;;;;18.93;31.12;102702.94;7306427;19;130250;-63
2021/12/20 06:31:21;;;;;;;15.15;3.35;;;;;;;18.82;31.63;102697.97;7309704;19;129748;-63
2021/12/20 06:33:48;;;;;;;11.77;2.63;;;;;;;18.82;32.44;102700.75;7317792;19;129309;-63
2021/12/20 06:36:15;;;;;;;12.82;2.20;;;;;;;18.86;32.29;102697.38;7313626;19;134236;-63
2021/12/20 06:38:45;;;;;;;14.43;3.08;;;;;;;18.96;32.53;102699.75;7316581;19;131117;-64
2021/12/20 06:41:13;;;;;;;7.68;2.28;;;;;;;19.08;32.46;102692.53;7310134;19;130348;-63
2021/12/20 06:43:40;;;;;;;12.80;3.28;;;;;;;19.25;32.51;102692.22;7315892;19;129279;-64
2021/12/20 06:46:07;;;;;;;12.57;2.60;;;;;;;19.44;32.42;102695.28;7315363;19;130787;-64
2021/12/20 06:48:33;;;;;;;11.90;2.25;;;;;;;19.63;32.51;102700.03;7316208;19;130708;-64
2021/12/20 06:51:00;;;;;;;9.75;2.28;;;;;;;19.87;32.51;102700.50;7318187;19;128876;-64
2021/12/20 06:53:27;;;;;;;11.02;2.60;;;;;;;20.06;32.67;102695.22;7315677;19;130251;-64
2021/12/20 06:55:54;;;;;;;8.73;2.30;;;;;;;20.26;32.05;102698.84;7319641;19;130449;-64
2021/12/20 06:58:23;;;;;;;16.88;2.70;;;;;;;20.44;32.20;102694.53;7317748;19;131293;-63
2021/12/20 07:00:53;;;;;;;11.32;2.58;;;;;;;20.62;32.34;102698.59;7320705;19;128979;-63
2021/12/20 07:03:22;;;;;;;11.30;2.20;;;;;;;20.77;32.08;102685.34;7317375;19;128950;-64
2021/12/20 07:05:49;;;;;;;10.10;2.58;;;;;;;20.92;31.97;102687.00;7319462;19;130680;-64
2021/12/20 07:08:16;;;;;;;6.72;2.15;;;;;;;21.02;31.81;102696.56;7316227;19;130619;-63
2021/12/20 07:10:43;;;;;;;21.65;3.47;;;;;;;21.11;31.89;102699.13;7314397;19;128993;-64
2021/12/20 07:13:10;;;;;;;17.98;2.88;;;;;;;21.16;32.04;102702.97;7317308;19;129423;-65
2021/12/20 07:15:37;;;;;;;15.27;2.70;;;;;;;21.22;32.14;102707.63;7313192;19;131966;-65
2021/12/20 07:18:05;;;;;;;14.23;2.78;;;;;;;21.31;32.15;102699.03;7319604;19;131780;-63
2021/12/20 07:20:33;;;;;;;11.23;2.50;;;;;;;21.35;31.95;102705.88;7315941;19;131200;-63
2021/12/20 07:23:00;;;;;;;25.33;2.95;;;;;;;21.38;32.27;102694.28;7319261;19;129251;-64
2021/12/20 07:25:26;;;;;;;15.32;2.88;;;;;;;21.40;31.80;102699.63;7314456;19;130606;-64
2021/12/20 07:27:53;;;;;;;17.38;2.22;;;;;;;21.41;32.34;102710.56;7316352;19;130581;-64
2021/12/20 07:30:20;;;;;;;16.05;3.13;;;;;;;21.40;31.89;102700.50;7314178;19;133315;-62
2021/12/20 07:32:48;;;;;;;14.75;2.75;;;;;;;21.37;32.45;102707.34;7316455;19;132188;-62
2021/12/20 07:35:15;;;;;;;14.25;2.65;;;;;;;21.34;32.16;102709.72;7313214;19;131720;-62
2021/12/20 07:37:43;;;;;;;12.10;2.53;;;;;;;21.30;32.07;102711.22;7317310;19;130567;-62
2021/12/20 07:40:11;;;;;;;8.18;2.17;;;;;;;21.25;32.38;102709.13;7319541;19;128945;-62
2021/12/20 07:42:38;;;;;;;11.30;2.60;;;;;;;21.19;32.63;102701.66;7314983;19;129248;-62
2021/12/20 07:45:07;;;;;;;13.55;2.50;;;;;;;21.15;32.73;102711.50;7318275;19;131498;-62
2021/12/20 07:47:49;;;;;;;10.25;2.20;;;;;;;21.08;32.48;102717.09;7316873;19;130688;-62
2021/12/20 07:50:17;;;;;;;11.02;2.50;;;;;;;21.02;32.44;102706.88;7317057;19;128727;-62
2021/12/20 07:52:45;;;;;;;10.05;2.42;;;;;;;20.97;32.93;102709.44;7318334;19;128933;-62
2021/12/20 07:55:11;;;;;;;11.63;2.58;;;;;;;20.90;32.79;102707.56;7315778;19;130584;-62
2021/12/20 07:57:38;;;;;;;10.55;2.47;;;;;;;20.85;32.99;102710.13;7317934;19;131333;-64
2021/12/20 08:00:08;;;;;;;13.05;2.75;;;;;;;20.81;32.76;102700.50;7316137;19;129051;-65
2021/12/20 08:02:34;;;;;;;8.27;2.25;;;;;;;20.78;33.16;102717.63;7316601;19;128828;-64
2021/12/20 08:05:02;;;;;;;16.13;2.95;;;;;;;20.78;32.91;102714.84;7313917;19;130815;-65
2021/12/20 08:07:29;;;;;;;14.70;2.50;;;;;;;20.77;33.30;102707.59;7316473;19;131926;-64
2021/12/20 08:09:55;;;;;;;10.95;2.55;;;;;;;20.80;33.28;102714.63;7314362;19;129023;-64
2021/12/20 08:12:22;;;;;;;11.32;2.13;;;;;;;20.86;33.05;102708.22;7317326;19;128854;-66
2021/12/20 08:14:49;;;;;;;14.77;2.50;;;;;;;20.97;33.20;102720.56;7317635;19;131293;-64
2021/12/20 08:17:16;;;;;;;11.10;2.40;;;;;;;21.10;33.13;102719.69;7313775;19;130299;-64
2021/12/20 08:19:42;;;;;;;8.85;2.42;;;;;;;21.20;33.02;102726.47;7317187;19;129645;-64
2021/12/20 08:22:09;;;;;;;9.77;2.53;;;;;;;21.32;32.45;102723.00;7315422;19;134453;-64
2021/12/20 08:24:36;;;;;;;12.70;2.72;;;;;;;21.39;32.46;102721.06;7316879;19;131345;-64
2021/12/20 08:27:03;;;;;;;8.70;2.10;;;;;;;21.41;32.68;102727.25;7311435;19;131284;-65
2021/12/20 08:29:30;;;;;;;11.40;2.40;;;;;;;21.41;32.62;102727.25;7308268;19;129027;-64
2021/12/20 08:32:02;;;;;;;8.40;2.65;;;;;;;21.41;32.76;102727.25;7312238;19;128976;-64
2021/12/20 08:34:31;;;;;;;11.40;2.50;;;;;;;21.39;32.72;102722.97;7312881;19;130731;-64
2021/12/20 08:36:59;;;;;;;12.57;2.75;;;;;;;21.36;32.83;102729.84;7317556;19;130679;-64
2021/12/20 08:39:25;;;;;;;10.30;2.25;;;;;;;21.32;32.75;102731.34;7313777;19;130011;-64
2021/12/20 08:41:52;;;;;;;10.73;2.58;;;;;;;21.28;32.43;102728.16;7315103;19;129343;-64
2021/12/20 08:44:19;;;;;;;7.90;2.17;;;;;;;21.24;32.62;102737.19;7316493;19;130596;-64
2021/12/20 08:46:46;;;;;;;9.43;2.92;;;;;;;21.19;32.46;102735.06;7311980;19;130476;-64
2021/12/20 08:49:13;;;;;;;10.95;2.50;;;;;;;21.14;32.71;102735.72;7313531;19;129387;-64
2021/12/20 08:51:40;;;;;;;12.38;2.70;;;;;;;21.10;33.03;102736.38;7316987;19;128919;-64
2021/12/20 08:54:06;;;;;;;11.07;2.33;;;;;;;21.04;32.98;102729.78;7311641;19;130523;-64
2021/12/20 08:56:34;;;;;;;8.05;2.50;;;;;;;21.01;32.97;102744.94;7315300;19;131213;-64
2021/12/20 08:59:01;;;;;;;7.63;2.03;;;;;;;20.97;33.13;102731.69;7313519;19;129564;-64
2021/12/20 09:01:27;;;;;;;8.23;2.20;;;;;;;20.93;32.97;102733.19;7312665;19;130505;-65
2021/12/20 09:03:57;;;;;;;9.80;2.70;;;;;;;20.88;32.92;102737.50;7315262;19;130581;-64
2021/12/20 09:06:25;;;;;;;9.70;2.50;;;;;;;20.86;32.75;102736.03;7313780;19;131591;-64
2021/12/20 09:08:55;;;;;;;7.93;2.35;;;;;;;20.83;32.69;102728.94;7313307;19;128995;-65
2021/12/20 09:11:26;;;;;;;11.70;2.50;;;;;;;20.81;32.93;102735.81;7314335;19;129404;-64
2021/12/20 09:13:58;;;;;;;12.23;2.65;;;;;;;20.79;33.14;102735.16;7312561;19;130636;-64
2021/12/20 09:16:26;;;;;;;6.38;2.08;;;;;;;20.75;32.71;102730.03;7310890;19;130877;-64
2021/12/20 09:18:53;;;;;;;12.25;2.90;;;;;;;20.74;33.01;102733.00;7314757;19;128781;-64
2021/12/20 09:21:20;;;;;;;12.05;2.17;;;;;;;20.71;32.94;102739.00;7313022;19;128726;-64
2021/12/20 09:23:47;;;;;;;11.13;2.90;;;;;;;20.70;32.68;102742.84;7313001;19;130401;-65
2021/12/20 09:26:18;;;;;;;11.93;2.83;;;;;;;20.68;32.77;102744.97;7314500;19;131299;-64
2021/12/20 09:28:44;;;;;;;9.90;2.78;;;;;;;20.66;33.35;102747.16;7312548;19;129037;-64
2021/12/20 09:31:11;;;;;;;11.65;2.72;;;;;;;20.66;32.90;102747.16;7312982;19;128951;-64
2021/12/20 09:33:38;;;;;;;16.35;3.03;;;;;;;20.64;33.23;102743.72;7312757;19;131577;-64
2021/12/20 09:36:06;;;;;;;17.80;3.20;;;;;;;20.62;32.86;102743.91;7311183;19;130492;-64
2021/12/20 09:38:33;;;;;;;10.52;2.78;;;;;;;20.62;32.84;102751.44;7309599;19;128969;-64
2021/12/20 09:43:52;;;;;;;11.50;2.88;;;;;;;20.60;33.13;102755.28;7309562;19;130588;-64
2021/12/20 09:46:21;;;;;;;11.25;2.67;;;;;;;20.60;33.07;102757.22;7311780;19;130513;-64
2021/12/20 09:48:49;;;;;;;9.27;2.38;;;;;;;20.58;33.09;102762.13;7313538;19;129195;-64
2021/12/20 09:51:17;;;;;;;9.10;2.38;;;;;;;20.56;33.10;102753.97;7312668;19;129465;-64
2021/12/20 09:53:44;;;;;;;8.70;2.22;;;;;;;20.56;32.94;102753.13;7313046;19;131674;-64
2021/12/20 09:56:11;;;;;;;16.45;3.13;;;;;;;20.54;33.11;102755.28;7314966;19;130659;-64
2021/12/20 09:58:40;;;;;;;7.85;2.50;;;;;;;20.53;33.34;102759.13;7312122;19;129459;-64
2021/12/20 10:01:09;;;;;;;10.05;2.58;;;;;;;20.52;32.99;102763.84;7312879;19;128840;-64
2021/12/20 10:03:36;;;;;;;9.93;2.50;;;;;;;20.51;33.04;102764.03;7314645;19;131455;-64
2021/12/20 10:06:04;;;;;;;9.05;3.28;;;;;;;20.49;33.15;102767.03;7304276;19;130407;-62
2021/12/20 10:08:33;;;;;;;9.60;2.92;;;;;;;20.45;32.99;102765.75;7310743;19;129281;-64
2021/12/20 10:11:05;;;;;;;8.77;3.05;;;;;;;20.44;32.81;102772.38;7312926;19;128806;-61
2021/12/20 10:13:36;;;;;;;14.52;2.83;;;;;;;20.45;32.64;102769.41;7308547;19;130895;-60
2021/12/20 10:16:14;;;;;;;10.50;2.75;;;;;;;20.48;32.78;102758.94;7311028;19;130777;-60
2021/12/20 10:18:41;;;;;;;8.10;2.40;;;;;;;20.49;33.00;102763.44;7313408;19;130788;-60
2021/12/20 10:21:08;;;;;;;13.93;2.60;;;;;;;20.49;32.69;102769.81;7310132;19;128859;-60
2021/12/20 10:23:40;;;;;;;13.25;2.83;;;;;;;20.49;32.73;102764.28;7306480;19;131442;-61
2021/12/20 10:26:13;;;;;;;10.75;2.92;;;;;;;20.50;32.48;102765.09;7312773;19;130647;-60
2021/12/20 10:28:40;;;;;;;10.20;2.53;;;;;;;20.50;32.66;102771.53;7307834;19;129589;-61
2021/12/20 10:31:13;;;;;;;9.20;2.80;;;;;;;20.53;32.51;102762.78;7311422;19;128947;-60
2021/12/20 10:33:49;;;;;;;11.38;2.92;;;;;;;20.51;32.44;102762.13;7311659;19;130479;-60
2021/12/20 10:36:16;;;;;;;8.77;2.60;;;;;;;20.53;32.42;102764.69;7308339;19;130576;-61
2021/12/20 10:38:45;;;;;;;9.52;2.72;;;;;;;20.53;33.03;102765.56;7310866;19;130740;-60
2021/12/20 10:41:28;;;;;;;15.73;2.45;;;;;;;20.55;33.39;102765.34;7310817;19;129069;-60
2021/12/20 10:44:00;;;;;;;11.13;2.90;;;;;;;20.54;33.50;102761.72;7308510;19;130946;-61
2021/12/20 10:46:34;;;;;;;11.15;2.88;;;;;;;20.54;33.17;102755.28;7310319;19;131153;-60
2021/12/20 10:49:08;;;;;;;14.02;2.70;;;;;;;20.56;33.38;102753.97;7311087;19;129136;-61
2021/12/20 10:51:37;;;;;;;8.27;2.55;;;;;;;20.58;33.37;102757.41;7308480;19;129598;-60
2021/12/20 10:54:10;;;;;;;10.05;3.13;;;;;;;20.57;33.09;102750.13;7311238;19;130587;-61
2021/12/20 10:56:39;;;;;;;12.05;2.90;;;;;;;20.58;33.04;102751.84;7312326;19;131468;-60
2021/12/20 10:59:11;;;;;;;7.93;2.63;;;;;;;20.57;33.44;102752.91;7307574;19;129379;-61
2021/12/20 11:04:23;;;;;;;10.23;2.50;;;;;;;20.57;33.36;102749.28;7311633;19;130542;-60
2021/12/20 11:09:31;;;;;;;7.95;2.10;;;;;;;20.55;33.59;102749.53;7309564;19;128941;-60
2021/12/20 11:12:04;;;;;;;6.43;2.17;;;;;;;20.55;33.13;102743.97;7310332;19;129202;-61
2021/12/20 11:14:36;;;;;;;9.68;2.30;;;;;;;20.53;33.41;102742.44;7307060;19;131221;-61
2021/12/20 11:17:09;;;;;;;8.50;2.47;;;;;;;20.51;33.49;102751.00;7309332;19;131036;-61
2021/12/20 11:19:41;;;;;;;10.05;2.30;;;;;;;20.50;33.63;102748.44;7317882;19;128858;-61
2021/12/20 11:22:09;;;;;;;8.48;2.08;;;;;;;20.49;33.17;102758.69;7315606;19;128976;-60
2021/12/20 11:24:42;;;;;;;8.50;3.00;;;;;;;20.48;33.71;102745.88;7315795;19;130727;-59
2021/12/20 11:27:19;;;;;;;8.65;2.60;;;;;;;20.48;33.56;102748.66;7318583;19;130611;-60
2021/12/20 11:29:48;;;;;;;12.23;2.33;;;;;;;20.47;32.91;102758.06;7313035;19;128925;-59
2021/12/20 11:32:16;;;;;;;10.88;3.20;;;;;;;20.45;32.53;102752.72;7315031;19;129203;-59
2021/12/20 11:34:43;;;;;;;10.50;2.70;;;;;;;20.45;32.66;102751.84;7318646;19;130628;-60
2021/12/20 11:37:13;;;;;;;11.68;2.63;;;;;;;20.44;33.06;102761.25;7317706;19;130670;-60
2021/12/20 11:39:41;;;;;;;9.95;2.78;;;;;;;20.44;32.92;102761.25;7314517;19;129002;-61